createdAt,value
2024-05-09T00:00:52.948Z,12.48
2024-05-09T00:03:23.159Z,12.47
2024-05-09T00:05:52.456Z,12.48
2024-05-09T00:08:21.305Z,12.49
2024-05-09T00:10:50.963Z,12.49
2024-05-09T00:13:19.653Z,12.51
2024-05-09T00:15:46.894Z,12.52
2024-05-09T00:18:22.710Z,12.54
2024-05-09T00:20:59.370Z,12.55
2024-05-09T00:23:32.260Z,12.56
2024-05-09T00:26:04.425Z,12.58
2024-05-09T00:28:31.865Z,12.60
2024-05-09T00:30:59.101Z,12.59
2024-05-09T00:33:26.404Z,12.59
2024-05-09T00:35:54.767Z,12.59
2024-05-09T00:38:24.902Z,12.59
2024-05-09T00:40:51.804Z,12.61
2024-05-09T00:43:19.108Z,12.61
2024-05-09T00:45:48.996Z,12.60
2024-05-09T00:48:20.745Z,12.61
2024-05-09T00:50:50.092Z,12.62
2024-05-09T00:53:18.314Z,12.62
2024-05-09T00:55:48.708Z,12.62
2024-05-09T00:58:16.239Z,12.59
2024-05-09T01:00:43.754Z,12.56
2024-05-09T01:03:14.960Z,12.55
2024-05-09T01:05:45.207Z,12.56
2024-05-09T01:08:17.905Z,12.56
2024-05-09T01:10:49.292Z,12.56
2024-05-09T01:13:17.841Z,12.60
2024-05-09T01:15:45.270Z,12.60
2024-05-09T01:18:14.362Z,12.62
2024-05-09T01:20:44.317Z,12.60
2024-05-09T01:23:16.666Z,12.59
2024-05-09T01:25:45.984Z,12.60
2024-05-09T01:28:19.294Z,12.61
2024-05-09T01:30:46.738Z,12.61
2024-05-09T01:33:15.778Z,12.61
2024-05-09T01:35:43.427Z,12.62
2024-05-09T01:38:21.354Z,12.63
2024-05-09T01:40:51.680Z,12.61
2024-05-09T01:43:19.587Z,12.59
2024-05-09T01:48:30.441Z,12.57
2024-05-09T01:50:59.923Z,12.55
2024-05-09T01:53:30.589Z,12.56
2024-05-09T01:55:57.757Z,12.57
2024-05-09T01:58:33.352Z,12.57
2024-05-09T02:01:05.247Z,12.57
2024-05-09T02:03:33.577Z,12.57
2024-05-09T02:06:06.787Z,12.57
2024-05-09T02:08:48.043Z,12.56
2024-05-09T02:11:19.344Z,12.56
2024-05-09T02:13:55.293Z,12.55
2024-05-09T02:16:23.039Z,12.52
2024-05-09T02:18:53.816Z,12.51
2024-05-09T02:21:22.754Z,12.52
2024-05-09T02:23:55.716Z,12.52
2024-05-09T02:26:22.786Z,12.52
2024-05-09T02:28:50.584Z,12.56
2024-05-09T02:31:21.209Z,12.55
2024-05-09T02:33:50.520Z,12.55
2024-05-09T02:36:17.951Z,12.53
2024-05-09T02:38:44.917Z,12.50
2024-05-09T02:41:14.835Z,12.50
2024-05-09T02:43:42.342Z,12.51
2024-05-09T02:46:09.443Z,12.54
2024-05-09T02:48:36.648Z,12.54
2024-05-09T02:51:04.336Z,12.56
2024-05-09T02:53:32.186Z,12.56
2024-05-09T02:56:00.262Z,12.55
2024-05-09T02:58:30.342Z,12.54
2024-05-09T03:01:02.435Z,12.54
2024-05-09T03:03:30.981Z,12.57
2024-05-09T03:05:58.040Z,12.60
2024-05-09T03:08:25.226Z,12.62
2024-05-09T03:10:52.437Z,12.62
2024-05-09T03:13:20.402Z,12.61
2024-05-09T03:15:50.191Z,12.60
2024-05-09T03:18:17.255Z,12.59
2024-05-09T03:20:44.829Z,12.54
2024-05-09T03:23:12.210Z,12.54
2024-05-09T03:25:42.126Z,12.51
2024-05-09T03:28:09.179Z,12.48
2024-05-09T03:30:41.459Z,12.46
2024-05-09T03:33:15.963Z,12.45
2024-05-09T03:35:43.437Z,12.43
2024-05-09T03:38:10.599Z,12.42
2024-05-09T03:40:44.084Z,12.40
2024-05-09T03:43:10.980Z,12.39
2024-05-09T03:45:40.649Z,12.37
2024-05-09T03:48:12.770Z,12.35
2024-05-09T03:50:51.381Z,12.34
2024-05-09T03:53:19.511Z,12.32
2024-05-09T03:55:49.457Z,12.33
2024-05-09T04:01:02.271Z,12.38
2024-05-09T04:03:34.450Z,12.39
2024-05-09T04:06:16.854Z,12.38
2024-05-09T04:08:49.071Z,12.38
2024-05-09T04:11:18.357Z,12.38
2024-05-09T04:13:49.267Z,12.38
2024-05-09T04:16:18.598Z,12.41
2024-05-09T04:18:50.778Z,12.38
2024-05-09T04:21:46.227Z,12.36
2024-05-09T04:24:15.610Z,12.36
2024-05-09T04:26:43.539Z,12.36
2024-05-09T04:29:11.051Z,12.36
2024-05-09T04:31:40.607Z,12.36
2024-05-09T04:34:08.667Z,12.37
2024-05-09T04:39:36.770Z,12.36
2024-05-09T04:42:19.309Z,12.31
2024-05-09T04:44:46.250Z,12.26
2024-05-09T04:47:13.965Z,12.24
2024-05-09T04:49:43.501Z,12.23
2024-05-09T04:52:13.588Z,12.23
2024-05-09T04:54:41.181Z,12.23
2024-05-09T04:57:08.006Z,12.22
2024-05-09T04:59:36.492Z,12.23
2024-05-09T05:02:05.437Z,12.25
2024-05-09T05:04:32.656Z,12.27
2024-05-09T05:07:02.999Z,12.30
2024-05-09T05:09:36.732Z,12.31
2024-05-09T05:12:23.834Z,12.36
2024-05-09T05:14:51.246Z,12.40
2024-05-09T05:17:19.193Z,12.41
2024-05-09T05:19:46.250Z,12.47
2024-05-09T05:22:15.784Z,12.51
2024-05-09T05:24:45.784Z,12.54
2024-05-09T05:27:12.568Z,12.57
2024-05-09T05:29:39.700Z,12.61
2024-05-09T05:32:07.067Z,12.63
2024-05-09T05:34:34.235Z,12.65
2024-05-09T05:37:01.404Z,12.65
2024-05-09T05:39:28.498Z,12.67
2024-05-09T05:42:06.556Z,12.71
2024-05-09T05:44:49.403Z,12.75
2024-05-09T05:47:24.921Z,12.74
2024-05-09T05:49:52.058Z,12.76
2024-05-09T05:52:21.645Z,12.78
2024-05-09T05:54:51.165Z,12.80
2024-05-09T05:57:21.749Z,12.82
2024-05-09T05:59:48.606Z,12.84
2024-05-09T06:02:16.942Z,12.85
2024-05-09T06:04:58.106Z,12.83
2024-05-09T06:07:29.284Z,12.85
2024-05-09T06:10:07.239Z,12.87
2024-05-09T06:12:44.653Z,12.89
2024-05-09T06:15:15.744Z,12.91
2024-05-09T06:17:44.169Z,12.92
2024-05-09T06:20:20.466Z,12.94
2024-05-09T06:22:55.027Z,12.96
2024-05-09T06:25:26.012Z,12.98
2024-05-09T06:27:57.229Z,12.99
2024-05-09T06:30:37.243Z,12.98
2024-05-09T06:33:09.590Z,13.00
2024-05-09T06:35:37.476Z,13.01
2024-05-09T06:38:04.580Z,13.03
2024-05-09T06:40:38.044Z,13.04
2024-05-09T06:43:14.945Z,13.04
2024-05-09T06:45:43.324Z,13.02
2024-05-09T06:48:10.710Z,13.05
2024-05-09T06:50:39.404Z,13.10
2024-05-09T06:53:07.408Z,13.14
2024-05-09T06:55:34.383Z,13.17
2024-05-09T06:58:02.978Z,13.17
2024-05-09T07:00:39.094Z,13.19
2024-05-09T07:03:09.298Z,13.20
2024-05-09T07:05:36.554Z,13.24
2024-05-09T07:08:10.280Z,13.28
2024-05-09T07:10:37.914Z,13.34
2024-05-09T07:13:07.886Z,13.41
2024-05-09T07:15:41.807Z,13.43
2024-05-09T07:18:19.789Z,13.43
2024-05-09T07:20:48.180Z,13.43
2024-05-09T07:23:17.119Z,13.48
2024-05-09T07:25:46.617Z,13.53
2024-05-09T07:28:23.374Z,13.60
2024-05-09T07:31:01.041Z,13.70
2024-05-09T07:33:28.578Z,13.76
2024-05-09T07:36:00.300Z,13.79
2024-05-09T07:38:35.163Z,13.80
2024-05-09T07:41:05.842Z,13.84
2024-05-09T07:43:35.022Z,13.89
2024-05-09T07:47:13.725Z,13.89
2024-05-09T07:50:35.833Z,13.89
2024-05-09T07:53:17.205Z,13.87
2024-05-09T07:54:35.857Z,13.89
2024-05-09T07:57:04.030Z,13.90
2024-05-09T07:59:33.391Z,13.90
2024-05-09T08:02:05.379Z,13.95
2024-05-09T08:04:32.628Z,14.01
2024-05-09T08:07:02.135Z,14.09
2024-05-09T08:09:30.099Z,14.15
2024-05-09T08:11:59.304Z,14.22
2024-05-09T08:14:26.215Z,14.28
2024-05-09T08:16:56.222Z,14.27
2024-05-09T08:19:26.243Z,14.24
2024-05-09T08:21:53.099Z,14.26
2024-05-09T08:24:19.831Z,14.33
2024-05-09T08:26:49.245Z,14.46
2024-05-09T08:29:16.066Z,14.61
2024-05-09T08:31:44.401Z,14.67
2024-05-09T08:34:12.047Z,14.76
2024-05-09T08:36:41.617Z,14.85
2024-05-09T08:39:08.420Z,14.97
2024-05-09T08:41:37.190Z,14.99
2024-05-09T08:44:03.992Z,15.01
2024-05-09T08:46:31.318Z,15.13
2024-05-09T08:48:59.429Z,15.35
2024-05-09T08:51:26.339Z,15.48
2024-05-09T08:53:55.890Z,15.62
2024-05-09T08:56:29.981Z,15.75
2024-05-09T08:59:00.824Z,15.88
2024-05-09T09:04:10.678Z,16.13
2024-05-09T09:06:37.728Z,16.26
2024-05-09T09:09:08.440Z,16.50
2024-05-09T09:11:35.112Z,16.73
2024-05-09T09:14:01.923Z,16.91
2024-05-09T09:16:32.490Z,17.12
2024-05-09T09:18:59.351Z,17.38
2024-05-09T09:21:26.063Z,17.45
2024-05-09T09:23:52.709Z,17.55
2024-05-09T09:26:22.120Z,17.70
2024-05-09T09:28:48.880Z,17.72
2024-05-09T09:31:18.789Z,17.72
2024-05-09T09:33:45.779Z,17.67
2024-05-09T09:36:15.274Z,17.53
2024-05-09T09:38:42.531Z,17.31
2024-05-09T09:41:10.911Z,17.25
2024-05-09T09:43:41.179Z,17.24
2024-05-09T09:46:11.583Z,17.31
2024-05-09T09:48:40.038Z,17.27
2024-05-09T09:51:07.827Z,17.29
2024-05-09T09:53:35.067Z,17.29
2024-05-09T09:56:03.206Z,17.26
2024-05-09T09:58:31.189Z,17.19
2024-05-09T10:01:00.573Z,17.10
2024-05-09T10:03:27.776Z,17.07
2024-05-09T10:05:54.998Z,17.06
2024-05-09T10:08:23.075Z,17.05
2024-05-09T10:10:50.767Z,17.09
2024-05-09T10:13:17.973Z,17.17
2024-05-09T10:15:45.802Z,17.20
2024-05-09T10:18:15.594Z,17.15
2024-05-09T10:20:42.827Z,17.19
2024-05-09T10:23:26.087Z,17.18
2024-05-09T10:25:56.868Z,17.22
2024-05-09T10:28:25.349Z,17.27
2024-05-09T10:30:59.655Z,17.34
2024-05-09T10:33:35.265Z,17.48
2024-05-09T10:36:03.097Z,17.84
2024-05-09T10:38:30.150Z,18.18
2024-05-09T10:40:57.015Z,18.44
2024-05-09T10:43:23.853Z,18.61
2024-05-09T10:45:51.658Z,18.57
2024-05-09T10:48:18.394Z,18.72
2024-05-09T10:50:47.680Z,18.90
2024-05-09T10:53:14.564Z,18.89
2024-05-09T10:55:41.341Z,18.85
2024-05-09T10:58:16.187Z,18.93
2024-05-09T11:00:42.941Z,18.82
2024-05-09T11:03:10.923Z,18.68
2024-05-09T11:05:38.140Z,18.52
2024-05-09T11:08:08.068Z,18.40
2024-05-09T11:10:35.043Z,18.34
2024-05-09T11:13:01.873Z,18.25
2024-05-09T11:15:37.477Z,18.26
2024-05-09T11:18:04.430Z,18.27
2024-05-09T11:20:35.480Z,18.23
2024-05-09T11:23:04.312Z,18.25
2024-05-09T11:25:33.708Z,18.34
2024-05-09T11:28:00.811Z,18.43
2024-05-09T11:30:31.992Z,18.52
2024-05-09T11:32:59.592Z,18.61
2024-05-09T11:35:27.017Z,18.55
2024-05-09T11:37:53.766Z,18.51
2024-05-09T11:40:25.618Z,18.43
2024-05-09T11:43:01.257Z,18.33
2024-05-09T11:45:28.241Z,18.31
2024-05-09T11:47:55.140Z,18.31
2024-05-09T11:50:27.325Z,18.36
2024-05-09T11:52:59.119Z,18.34
2024-05-09T11:55:28.128Z,18.38
2024-05-09T11:57:55.335Z,18.52
2024-05-09T12:00:33.022Z,18.68
2024-05-09T12:03:05.189Z,18.97
2024-05-09T12:05:32.862Z,19.21
2024-05-09T12:08:00.556Z,19.27
2024-05-09T12:10:33.121Z,19.36
2024-05-09T12:13:02.650Z,19.64
2024-05-09T12:15:32.773Z,19.63
2024-05-09T12:18:02.756Z,19.70
2024-05-09T12:20:36.724Z,19.75
2024-05-09T12:23:05.898Z,19.74
2024-05-09T12:25:32.813Z,19.69
2024-05-09T12:27:59.602Z,19.58
2024-05-09T12:30:35.357Z,19.50
2024-05-09T12:33:09.736Z,19.48
2024-05-09T12:35:36.786Z,19.49
2024-05-09T12:38:04.172Z,19.49
2024-05-09T12:40:35.943Z,19.44
2024-05-09T12:43:05.428Z,19.33
2024-05-09T12:45:32.365Z,19.25
2024-05-09T12:47:59.467Z,19.20
2024-05-09T12:50:33.245Z,19.12
2024-05-09T12:53:01.919Z,19.05
2024-05-09T12:55:33.890Z,19.05
2024-05-09T12:58:08.273Z,18.97
2024-05-09T13:00:35.586Z,19.02
2024-05-09T13:03:02.733Z,19.06
2024-05-09T13:05:32.345Z,19.07
2024-05-09T13:08:00.527Z,19.07
2024-05-09T13:10:32.068Z,19.35
2024-05-09T13:13:01.042Z,19.69
2024-05-09T13:15:28.567Z,19.83
2024-05-09T13:17:58.119Z,19.88
2024-05-09T13:20:32.422Z,19.87
2024-05-09T13:23:04.831Z,19.91
2024-05-09T13:25:32.251Z,19.78
2024-05-09T13:27:59.202Z,19.69
2024-05-09T13:30:33.679Z,19.64
2024-05-09T13:33:06.487Z,19.55
2024-05-09T13:35:35.209Z,19.49
2024-05-09T13:38:05.530Z,19.51
2024-05-09T13:40:34.959Z,19.45
2024-05-09T13:43:03.397Z,19.38
2024-05-09T13:45:30.298Z,19.32
2024-05-09T13:47:57.254Z,19.32
2024-05-09T13:50:32.927Z,19.24
2024-05-09T13:53:07.054Z,19.22
2024-05-09T13:55:35.374Z,19.15
2024-05-09T13:58:02.816Z,19.10
2024-05-09T14:00:41.986Z,19.03
2024-05-09T14:03:14.013Z,18.94
2024-05-09T14:05:41.151Z,18.79
2024-05-09T14:08:11.106Z,18.76
2024-05-09T14:10:43.987Z,18.80
2024-05-09T14:13:11.501Z,18.84
2024-05-09T14:15:38.280Z,18.85
2024-05-09T14:18:05.990Z,18.85
2024-05-09T14:20:33.317Z,18.83
2024-05-09T14:23:00.550Z,18.80
2024-05-09T14:25:32.735Z,18.79
2024-05-09T14:28:00.480Z,18.85
2024-05-09T14:30:34.812Z,18.83
2024-05-09T14:33:05.235Z,18.86
2024-05-09T14:35:32.675Z,18.90
2024-05-09T14:37:59.337Z,18.91
2024-05-09T14:40:36.686Z,18.94
2024-05-09T14:43:11.263Z,19.01
2024-05-09T14:45:38.332Z,19.04
2024-05-09T14:48:05.434Z,19.01
2024-05-09T14:50:37.325Z,19.03
2024-05-09T14:53:06.764Z,18.99
2024-05-09T14:55:40.013Z,19.03
2024-05-09T14:58:10.692Z,19.02
2024-05-09T15:00:40.393Z,19.02
2024-05-09T15:03:10.221Z,19.08
2024-05-09T15:05:36.917Z,19.11
2024-05-09T15:08:05.680Z,19.10
2024-05-09T15:10:35.696Z,19.11
2024-05-09T15:13:04.146Z,19.11
2024-05-09T15:15:34.054Z,19.10
2024-05-09T15:18:00.871Z,19.03
2024-05-09T15:20:34.334Z,18.97
2024-05-09T15:23:03.544Z,18.95
2024-05-09T15:25:30.844Z,18.92
2024-05-09T15:27:57.784Z,18.96
2024-05-09T15:30:30.582Z,18.98
2024-05-09T15:33:06.225Z,18.97
2024-05-09T15:35:34.100Z,19.00
2024-05-09T15:38:02.811Z,18.99
2024-05-09T15:40:37.234Z,18.96
2024-05-09T15:43:07.435Z,18.90
2024-05-09T15:45:34.781Z,18.85
2024-05-09T15:48:05.473Z,18.83
2024-05-09T15:50:38.214Z,18.83
2024-05-09T15:53:08.310Z,18.89
2024-05-09T15:55:35.933Z,18.93
2024-05-09T15:58:04.164Z,18.91
2024-05-09T16:00:38.709Z,18.92
2024-05-09T16:03:12.512Z,18.92
2024-05-09T16:05:41.034Z,18.92
2024-05-09T16:08:08.500Z,18.93
2024-05-09T16:10:36.068Z,18.94
2024-05-09T16:13:03.700Z,18.92
2024-05-09T16:15:30.970Z,18.94
2024-05-09T16:17:58.104Z,18.97
2024-05-09T16:20:35.209Z,18.97
2024-05-09T16:23:06.896Z,18.92
2024-05-09T16:25:33.640Z,18.92
2024-05-09T16:28:00.694Z,18.94
2024-05-09T16:30:34.011Z,18.93
2024-05-09T16:33:03.015Z,18.93
2024-05-09T16:35:32.653Z,18.94
2024-05-09T16:38:01.116Z,18.97
2024-05-09T16:40:36.151Z,19.00
2024-05-09T16:43:06.649Z,19.06
2024-05-09T16:45:33.836Z,19.15
2024-05-09T16:48:01.543Z,19.17
2024-05-09T16:50:32.745Z,19.14
2024-05-09T16:53:04.993Z,19.08
2024-05-09T16:55:32.426Z,18.94
2024-05-09T16:57:59.331Z,18.83
2024-05-09T17:00:36.079Z,18.74
2024-05-09T17:03:08.816Z,18.64
2024-05-09T17:05:36.363Z,18.59
2024-05-09T17:08:07.266Z,18.53
2024-05-09T17:10:35.964Z,18.48
2024-05-09T17:13:04.645Z,18.49
2024-05-09T17:15:33.281Z,18.44
2024-05-09T17:18:00.691Z,18.41
2024-05-09T17:20:33.096Z,18.38
2024-05-09T17:23:02.919Z,18.32
2024-05-09T17:25:32.289Z,18.30
2024-05-09T17:28:06.904Z,18.28
2024-05-09T17:30:36.660Z,18.27
2024-05-09T17:33:05.938Z,18.26
2024-05-09T17:35:32.741Z,18.25
2024-05-09T17:37:59.854Z,18.21
2024-05-09T17:40:32.793Z,18.16
2024-05-09T17:43:06.272Z,18.13
2024-05-09T17:45:34.232Z,18.10
2024-05-09T17:48:01.644Z,18.05
2024-05-09T17:50:35.111Z,18.02
2024-05-09T17:53:04.212Z,17.99
2024-05-09T17:55:31.002Z,17.95
2024-05-09T17:57:57.899Z,17.92
2024-05-09T18:00:36.752Z,17.87
2024-05-09T18:03:07.281Z,17.84
2024-05-09T18:05:34.682Z,17.82
2024-05-09T18:08:01.522Z,17.80
2024-05-09T18:10:35.212Z,17.78
2024-05-09T18:13:05.808Z,17.76
2024-05-09T18:15:36.055Z,17.73
2024-05-09T18:18:03.657Z,17.67
2024-05-09T18:20:40.338Z,17.65
2024-05-09T18:23:11.228Z,17.60
2024-05-09T18:25:37.911Z,17.52
2024-05-09T18:28:05.427Z,17.45
2024-05-09T18:30:35.412Z,17.39
2024-05-09T18:33:08.001Z,17.32
2024-05-09T18:35:35.601Z,17.29
2024-05-09T18:38:02.634Z,17.29
2024-05-09T18:40:34.420Z,17.29
2024-05-09T18:43:04.663Z,17.26
2024-05-09T18:45:32.448Z,17.25
2024-05-09T18:48:00.023Z,17.24
2024-05-09T18:50:35.604Z,17.22
2024-05-09T18:53:05.931Z,17.19
2024-05-09T18:55:32.747Z,17.15
2024-05-09T18:57:59.547Z,17.12
2024-05-09T19:00:33.625Z,17.13
2024-05-09T19:03:05.654Z,17.11
2024-05-09T19:05:36.304Z,17.09
2024-05-09T19:08:03.396Z,17.07
2024-05-09T19:10:34.328Z,17.06
2024-05-09T19:13:05.738Z,17.04
2024-05-09T19:15:36.142Z,17.05
2024-05-09T19:18:03.585Z,17.03
2024-05-09T19:20:34.500Z,16.97
2024-05-09T19:23:06.154Z,16.92
2024-05-09T19:25:33.315Z,16.91
2024-05-09T19:28:00.081Z,16.88
2024-05-09T19:30:36.418Z,16.87
2024-05-09T19:33:07.563Z,16.84
2024-05-09T19:35:34.338Z,16.80
2024-05-09T19:38:01.182Z,16.79
2024-05-09T19:40:32.786Z,16.79
2024-05-09T19:43:02.348Z,16.79
2024-05-09T19:45:29.760Z,16.80
2024-05-09T19:47:56.593Z,16.78
2024-05-09T19:50:32.142Z,16.71
2024-05-09T19:53:06.691Z,16.65
2024-05-09T19:55:35.952Z,16.61
2024-05-09T19:58:04.905Z,16.56
2024-05-09T20:00:36.223Z,16.50
2024-05-09T20:03:05.269Z,16.42
2024-05-09T20:05:32.330Z,16.33
2024-05-09T20:07:59.329Z,16.27
2024-05-09T20:10:31.467Z,16.22
2024-05-09T20:13:03.233Z,16.18
2024-05-09T20:15:30.640Z,16.15
2024-05-09T20:17:57.463Z,16.15
2024-05-09T20:20:33.031Z,16.12
2024-05-09T20:23:05.144Z,16.11
2024-05-09T20:25:31.760Z,16.13
2024-05-09T20:27:58.824Z,16.14
2024-05-09T20:30:32.291Z,16.14
2024-05-09T20:33:02.296Z,16.12
2024-05-09T20:35:31.635Z,16.12
2024-05-09T20:38:27.113Z,16.11
2024-05-09T20:40:53.882Z,16.07
2024-05-09T20:43:21.043Z,16.05
2024-05-09T20:45:50.581Z,16.02
2024-05-09T20:48:18.061Z,16.01
2024-05-09T20:50:44.980Z,15.95
2024-05-09T20:53:13.535Z,15.85
2024-05-09T20:55:43.031Z,15.76
2024-05-09T20:58:11.258Z,15.66
2024-05-09T21:00:42.783Z,15.64
2024-05-09T21:03:16.794Z,15.60
2024-05-09T21:05:46.627Z,15.54
2024-05-09T21:08:19.708Z,15.49
2024-05-09T21:10:46.840Z,15.40
2024-05-09T21:13:13.742Z,15.32
2024-05-09T21:15:41.133Z,15.27
2024-05-09T21:18:10.196Z,15.21
2024-05-09T21:20:39.908Z,15.13
2024-05-09T21:23:06.903Z,15.05
2024-05-09T21:25:41.613Z,14.99
2024-05-09T21:28:09.217Z,14.91
2024-05-09T21:30:41.772Z,14.86
2024-05-09T21:33:11.655Z,14.80
2024-05-09T21:35:45.380Z,14.73
2024-05-09T21:38:14.110Z,14.63
2024-05-09T21:40:41.372Z,14.55
2024-05-09T21:43:09.373Z,14.47
2024-05-09T21:45:37.926Z,14.37
2024-05-09T21:48:07.112Z,14.26
2024-05-09T21:50:40.871Z,14.21
2024-05-09T21:53:13.452Z,14.18
2024-05-09T21:55:40.757Z,14.13
2024-05-09T21:58:08.066Z,14.08
2024-05-09T22:00:38.189Z,13.99
2024-05-09T22:03:06.435Z,13.91
2024-05-09T22:05:33.945Z,13.84
2024-05-09T22:08:00.906Z,13.74
2024-05-09T22:10:34.291Z,13.60
2024-05-09T22:13:03.014Z,13.46
2024-05-09T22:15:30.166Z,13.35
2024-05-09T22:17:57.538Z,13.31
2024-05-09T22:20:33.543Z,13.28
2024-05-09T22:23:04.646Z,13.26
2024-05-09T22:25:34.264Z,13.26
2024-05-09T22:28:01.791Z,13.19
2024-05-09T22:30:35.817Z,13.13
2024-05-09T22:33:06.449Z,13.07
2024-05-09T22:35:33.451Z,13.00
2024-05-09T22:38:00.128Z,12.92
2024-05-09T22:40:38.287Z,12.91
2024-05-09T22:43:16.349Z,12.86
2024-05-09T22:45:43.113Z,12.79
2024-05-09T22:48:10.174Z,12.71
2024-05-09T22:50:36.918Z,12.60
2024-05-09T22:53:03.622Z,12.50
2024-05-09T22:55:30.331Z,12.47
2024-05-09T22:57:57.205Z,12.45
2024-05-09T23:00:31.481Z,12.46
2024-05-09T23:03:00.034Z,12.45
2024-05-09T23:05:27.175Z,12.42
2024-05-09T23:07:53.913Z,12.38
2024-05-09T23:10:27.783Z,12.32
2024-05-09T23:12:59.340Z,12.16
2024-05-09T23:15:28.624Z,12.06
2024-05-09T23:17:55.557Z,11.97
2024-05-09T23:20:33.168Z,11.91
2024-05-09T23:23:05.839Z,11.84
2024-05-09T23:25:32.646Z,11.79
2024-05-09T23:28:00.883Z,11.71
2024-05-09T23:30:44.286Z,11.60
2024-05-09T23:33:13.247Z,11.48
2024-05-09T23:35:41.892Z,11.44
2024-05-09T23:38:09.394Z,11.39
2024-05-09T23:40:40.528Z,11.37
2024-05-09T23:43:10.385Z,11.35
2024-05-09T23:45:43.639Z,11.38
2024-05-09T23:48:13.720Z,11.40
2024-05-09T23:50:45.987Z,11.38
2024-05-09T23:53:14.511Z,11.31
2024-05-09T23:55:42.224Z,11.26
2024-05-09T23:58:11.388Z,11.21
